sensor_id;sensor_type;location;lat;lon;timestamp;temperature;humidity
49218;DHT22;35045;51.194;7.268;2023-03-14T00:02:26;10.60;99.90
49218;DHT22;35045;51.194;7.268;2023-03-14T00:04:56;10.60;99.90
49218;DHT22;35045;51.194;7.268;2023-03-14T00:07:22;10.60;99.90
49218;DHT22;35045;51.194;7.268;2023-03-14T00:09:51;10.60;99.90
49218;DHT22;35045;51.194;7.268;2023-03-14T00:12:17;10.60;99.90
49218;DHT22;35045;51.194;7.268;2023-03-14T00:14:44;10.60;99.90
49218;DHT22;35045;51.194;7.268;2023-03-14T00:17:10;10.60;99.90
49218;DHT22;35045;51.194;7.268;2023-03-14T00:19:36;10.50;99.90
49218;DHT22;35045;51.194;7.268;2023-03-14T00:22:02;10.50;99.90
49218;DHT22;35045;51.194;7.268;2023-03-14T00:24:28;10.50;99.90
49218;DHT22;35045;51.194;7.268;2023-03-14T00:26:55;10.50;99.90
49218;DHT22;35045;51.194;7.268;2023-03-14T00:29:21;10.50;99.90
49218;DHT22;35045;51.194;7.268;2023-03-14T00:31:47;10.50;99.90
49218;DHT22;35045;51.194;7.268;2023-03-14T00:34:13;10.50;99.90
49218;DHT22;35045;51.194;7.268;2023-03-14T00:36:39;10.50;99.90
49218;DHT22;35045;51.194;7.268;2023-03-14T00:39:05;10.60;99.90
49218;DHT22;35045;51.194;7.268;2023-03-14T00:41:32;10.60;99.90
49218;DHT22;35045;51.194;7.268;2023-03-14T00:43:58;10.60;99.90
49218;DHT22;35045;51.194;7.268;2023-03-14T00:46:24;10.60;99.90
49218;DHT22;35045;51.194;7.268;2023-03-14T00:48:50;10.60;99.90
49218;DHT22;35045;51.194;7.268;2023-03-14T00:51:17;10.60;99.90
49218;DHT22;35045;51.194;7.268;2023-03-14T00:53:43;10.60;99.90
49218;DHT22;35045;51.194;7.268;2023-03-14T00:56:11;10.60;99.90
49218;DHT22;35045;51.194;7.268;2023-03-14T00:58:38;10.60;99.90
49218;DHT22;35045;51.194;7.268;2023-03-14T01:01:07;10.60;99.90
49218;DHT22;35045;51.194;7.268;2023-03-14T01:03:33;10.60;99.90
49218;DHT22;35045;51.194;7.268;2023-03-14T01:06:13;10.60;99.90
49218;DHT22;35045;51.194;7.268;2023-03-14T01:08:40;10.60;99.90
49218;DHT22;35045;51.194;7.268;2023-03-14T01:11:08;10.70;99.90
49218;DHT22;35045;51.194;7.268;2023-03-14T01:13:35;10.70;99.90
49218;DHT22;35045;51.194;7.268;2023-03-14T01:16:03;10.70;99.90
49218;DHT22;35045;51.194;7.268;2023-03-14T01:18:32;10.70;99.90
49218;DHT22;35045;51.194;7.268;2023-03-14T01:20:58;10.60;99.90
49218;DHT22;35045;51.194;7.268;2023-03-14T01:23:24;10.30;99.90
49218;DHT22;35045;51.194;7.268;2023-03-14T01:25:50;9.60;99.90
49218;DHT22;35045;51.194;7.268;2023-03-14T01:28:17;9.10;99.90
49218;DHT22;35045;51.194;7.268;2023-03-14T01:30:43;8.90;99.90
49218;DHT22;35045;51.194;7.268;2023-03-14T01:33:09;8.80;99.90
49218;DHT22;35045;51.194;7.268;2023-03-14T01:35:35;8.60;99.90
49218;DHT22;35045;51.194;7.268;2023-03-14T01:38:01;8.50;99.90
49218;DHT22;35045;51.194;7.268;2023-03-14T01:40:27;8.50;99.90
49218;DHT22;35045;51.194;7.268;2023-03-14T01:42:55;8.50;99.90
49218;DHT22;35045;51.194;7.268;2023-03-14T01:48:28;8.30;99.90
49218;DHT22;35045;51.194;7.268;2023-03-14T01:50:58;8.30;99.90
49218;DHT22;35045;51.194;7.268;2023-03-14T01:53:25;8.30;99.90
49218;DHT22;35045;51.194;7.268;2023-03-14T01:55:52;8.30;99.90
49218;DHT22;35045;51.194;7.268;2023-03-14T01:58:23;8.20;99.90
49218;DHT22;35045;51.194;7.268;2023-03-14T02:00:54;8.30;99.90
49218;DHT22;35045;51.194;7.268;2023-03-14T02:03:21;8.30;99.90
49218;DHT22;35045;51.194;7.268;2023-03-14T02:05:50;8.30;99.90
49218;DHT22;35045;51.194;7.268;2023-03-14T02:08:21;8.30;99.90
49218;DHT22;35045;51.194;7.268;2023-03-14T02:10:48;8.30;99.90
49218;DHT22;35045;51.194;7.268;2023-03-14T02:13:17;8.30;99.90
49218;DHT22;35045;51.194;7.268;2023-03-14T02:15:44;8.30;99.90
49218;DHT22;35045;51.194;7.268;2023-03-14T02:18:11;8.30;99.90
49218;DHT22;35045;51.194;7.268;2023-03-14T02:23:53;8.40;99.90
49218;DHT22;35045;51.194;7.268;2023-03-14T02:26:29;8.40;99.90
49218;DHT22;35045;51.194;7.268;2023-03-14T02:28:58;8.50;99.90
49218;DHT22;35045;51.194;7.268;2023-03-14T02:31:24;8.60;99.90
49218;DHT22;35045;51.194;7.268;2023-03-14T02:33:51;8.60;99.90
49218;DHT22;35045;51.194;7.268;2023-03-14T02:36:18;8.70;99.90
49218;DHT22;35045;51.194;7.268;2023-03-14T02:41:29;8.80;99.90
49218;DHT22;35045;51.194;7.268;2023-03-14T02:43:56;8.80;99.90
49218;DHT22;35045;51.194;7.268;2023-03-14T02:46:22;8.80;99.90
49218;DHT22;35045;51.194;7.268;2023-03-14T02:48:59;8.70;99.90
49218;DHT22;35045;51.194;7.268;2023-03-14T02:51:28;8.80;99.90
49218;DHT22;35045;51.194;7.268;2023-03-14T02:53:54;8.80;99.90
49218;DHT22;35045;51.194;7.268;2023-03-14T02:56:20;8.80;99.90
49218;DHT22;35045;51.194;7.268;2023-03-14T02:58:47;8.80;99.90
49218;DHT22;35045;51.194;7.268;2023-03-14T03:01:13;8.80;99.90
49218;DHT22;35045;51.194;7.268;2023-03-14T03:03:39;8.80;99.90
49218;DHT22;35045;51.194;7.268;2023-03-14T03:06:05;8.80;99.90
49218;DHT22;35045;51.194;7.268;2023-03-14T03:08:32;8.80;99.90
49218;DHT22;35045;51.194;7.268;2023-03-14T03:10:59;8.90;99.90
49218;DHT22;35045;51.194;7.268;2023-03-14T03:13:25;8.80;99.90
49218;DHT22;35045;51.194;7.268;2023-03-14T03:15:51;8.80;99.90
49218;DHT22;35045;51.194;7.268;2023-03-14T03:18:17;8.80;99.90
49218;DHT22;35045;51.194;7.268;2023-03-14T03:20:44;8.80;99.90
49218;DHT22;35045;51.194;7.268;2023-03-14T03:23:10;8.80;99.90
49218;DHT22;35045;51.194;7.268;2023-03-14T03:25:36;8.90;99.90
49218;DHT22;35045;51.194;7.268;2023-03-14T03:28:02;8.90;99.90
49218;DHT22;35045;51.194;7.268;2023-03-14T03:30:37;8.90;99.90
49218;DHT22;35045;51.194;7.268;2023-03-14T03:33:03;8.90;99.90
49218;DHT22;35045;51.194;7.268;2023-03-14T03:35:30;9.00;99.90
49218;DHT22;35045;51.194;7.268;2023-03-14T03:37:56;8.90;99.90
49218;DHT22;35045;51.194;7.268;2023-03-14T03:40:22;9.00;99.90
49218;DHT22;35045;51.194;7.268;2023-03-14T03:42:48;9.00;99.90
49218;DHT22;35045;51.194;7.268;2023-03-14T03:45:14;9.00;99.90
49218;DHT22;35045;51.194;7.268;2023-03-14T03:47:41;9.00;99.90
49218;DHT22;35045;51.194;7.268;2023-03-14T03:50:07;9.00;99.90
49218;DHT22;35045;51.194;7.268;2023-03-14T03:52:34;9.10;99.90
49218;DHT22;35045;51.194;7.268;2023-03-14T03:55:00;9.00;99.90
49218;DHT22;35045;51.194;7.268;2023-03-14T03:57:26;9.10;99.90
49218;DHT22;35045;51.194;7.268;2023-03-14T03:59:52;9.00;99.90
49218;DHT22;35045;51.194;7.268;2023-03-14T04:02:18;9.00;99.90
49218;DHT22;35045;51.194;7.268;2023-03-14T04:04:44;9.00;99.90
49218;DHT22;35045;51.194;7.268;2023-03-14T04:07:11;8.90;99.90
49218;DHT22;35045;51.194;7.268;2023-03-14T04:09:39;8.90;99.90
49218;DHT22;35045;51.194;7.268;2023-03-14T04:12:06;8.90;99.90
49218;DHT22;35045;51.194;7.268;2023-03-14T04:14:32;8.90;99.90
49218;DHT22;35045;51.194;7.268;2023-03-14T04:16:58;8.90;99.90
49218;DHT22;35045;51.194;7.268;2023-03-14T04:19:24;8.90;99.90
49218;DHT22;35045;51.194;7.268;2023-03-14T04:21:50;8.90;99.90
49218;DHT22;35045;51.194;7.268;2023-03-14T04:24:16;8.90;99.90
49218;DHT22;35045;51.194;7.268;2023-03-14T04:26:43;8.90;99.90
49218;DHT22;35045;51.194;7.268;2023-03-14T04:29:09;8.90;99.90
49218;DHT22;35045;51.194;7.268;2023-03-14T04:31:37;8.90;99.90
49218;DHT22;35045;51.194;7.268;2023-03-14T04:34:03;8.90;99.90
49218;DHT22;35045;51.194;7.268;2023-03-14T04:36:29;8.90;99.90
49218;DHT22;35045;51.194;7.268;2023-03-14T04:38:55;8.90;99.90
49218;DHT22;35045;51.194;7.268;2023-03-14T04:41:21;8.80;99.90
49218;DHT22;35045;51.194;7.268;2023-03-14T04:43:48;8.80;99.90
49218;DHT22;35045;51.194;7.268;2023-03-14T04:46:14;8.80;99.90
49218;DHT22;35045;51.194;7.268;2023-03-14T04:48:40;8.80;99.90
49218;DHT22;35045;51.194;7.268;2023-03-14T04:51:06;8.80;99.90
49218;DHT22;35045;51.194;7.268;2023-03-14T04:53:33;8.90;99.90
49218;DHT22;35045;51.194;7.268;2023-03-14T04:56:00;8.90;99.90
49218;DHT22;35045;51.194;7.268;2023-03-14T04:58:26;8.90;99.90
49218;DHT22;35045;51.194;7.268;2023-03-14T05:00:52;8.80;99.90
49218;DHT22;35045;51.194;7.268;2023-03-14T05:03:18;8.80;99.90
49218;DHT22;35045;51.194;7.268;2023-03-14T05:05:45;8.80;99.90
49218;DHT22;35045;51.194;7.268;2023-03-14T05:08:12;8.80;99.90
49218;DHT22;35045;51.194;7.268;2023-03-14T05:10:38;8.80;99.90
49218;DHT22;35045;51.194;7.268;2023-03-14T05:13:04;8.70;99.90
49218;DHT22;35045;51.194;7.268;2023-03-14T05:15:30;8.80;99.90
49218;DHT22;35045;51.194;7.268;2023-03-14T05:17:57;8.80;99.90
49218;DHT22;35045;51.194;7.268;2023-03-14T05:20:23;8.80;99.90
49218;DHT22;35045;51.194;7.268;2023-03-14T05:22:49;8.80;99.90
49218;DHT22;35045;51.194;7.268;2023-03-14T05:25:15;8.80;99.90
49218;DHT22;35045;51.194;7.268;2023-03-14T05:27:41;8.80;99.90
49218;DHT22;35045;51.194;7.268;2023-03-14T05:30:08;8.80;99.90
49218;DHT22;35045;51.194;7.268;2023-03-14T05:32:35;8.80;99.90
49218;DHT22;35045;51.194;7.268;2023-03-14T05:35:01;8.80;99.90
49218;DHT22;35045;51.194;7.268;2023-03-14T05:37:27;8.80;99.90
49218;DHT22;35045;51.194;7.268;2023-03-14T05:39:54;8.80;99.90
49218;DHT22;35045;51.194;7.268;2023-03-14T05:42:20;8.80;99.90
49218;DHT22;35045;51.194;7.268;2023-03-14T05:44:46;8.80;99.90
49218;DHT22;35045;51.194;7.268;2023-03-14T05:47:12;8.80;99.90
49218;DHT22;35045;51.194;7.268;2023-03-14T05:49:38;8.80;99.90
49218;DHT22;35045;51.194;7.268;2023-03-14T05:52:05;8.80;99.90
49218;DHT22;35045;51.194;7.268;2023-03-14T05:54:31;8.80;99.90
49218;DHT22;35045;51.194;7.268;2023-03-14T05:56:57;8.80;99.90
49218;DHT22;35045;51.194;7.268;2023-03-14T05:59:23;8.80;99.90
49218;DHT22;35045;51.194;7.268;2023-03-14T06:01:49;8.90;99.90
49218;DHT22;35045;51.194;7.268;2023-03-14T06:04:15;8.80;99.90
49218;DHT22;35045;51.194;7.268;2023-03-14T06:06:42;8.80;99.90
49218;DHT22;35045;51.194;7.268;2023-03-14T06:09:08;8.70;99.90
49218;DHT22;35045;51.194;7.268;2023-03-14T06:11:35;8.70;99.90
49218;DHT22;35045;51.194;7.268;2023-03-14T06:14:01;8.80;99.90
49218;DHT22;35045;51.194;7.268;2023-03-14T06:16:27;8.70;99.90
49218;DHT22;35045;51.194;7.268;2023-03-14T06:18:53;8.70;99.90
49218;DHT22;35045;51.194;7.268;2023-03-14T06:21:19;8.70;99.90
49218;DHT22;35045;51.194;7.268;2023-03-14T06:23:46;8.70;99.90
49218;DHT22;35045;51.194;7.268;2023-03-14T06:26:12;8.70;99.90
49218;DHT22;35045;51.194;7.268;2023-03-14T06:28:38;8.80;99.90
49218;DHT22;35045;51.194;7.268;2023-03-14T06:31:05;8.80;99.90
49218;DHT22;35045;51.194;7.268;2023-03-14T06:33:31;8.80;99.90
49218;DHT22;35045;51.194;7.268;2023-03-14T06:35:57;8.80;99.90
49218;DHT22;35045;51.194;7.268;2023-03-14T06:38:23;8.70;99.90
49218;DHT22;35045;51.194;7.268;2023-03-14T06:40:50;8.70;99.90
49218;DHT22;35045;51.194;7.268;2023-03-14T06:43:16;8.80;99.90
49218;DHT22;35045;51.194;7.268;2023-03-14T06:45:42;8.80;99.90
49218;DHT22;35045;51.194;7.268;2023-03-14T06:48:08;8.80;99.90
49218;DHT22;35045;51.194;7.268;2023-03-14T06:50:35;8.90;99.90
49218;DHT22;35045;51.194;7.268;2023-03-14T06:53:01;8.90;99.90
49218;DHT22;35045;51.194;7.268;2023-03-14T06:55:29;8.90;99.90
49218;DHT22;35045;51.194;7.268;2023-03-14T06:57:55;9.00;99.90
49218;DHT22;35045;51.194;7.268;2023-03-14T07:00:21;8.90;99.90
49218;DHT22;35045;51.194;7.268;2023-03-14T07:02:47;9.00;99.90
49218;DHT22;35045;51.194;7.268;2023-03-14T07:05:14;9.10;99.90
49218;DHT22;35045;51.194;7.268;2023-03-14T07:07:40;9.10;99.90
49218;DHT22;35045;51.194;7.268;2023-03-14T07:10:06;9.10;99.90
49218;DHT22;35045;51.194;7.268;2023-03-14T07:12:34;9.10;99.90
49218;DHT22;35045;51.194;7.268;2023-03-14T07:15:00;9.20;99.90
49218;DHT22;35045;51.194;7.268;2023-03-14T07:17:42;9.20;99.90
49218;DHT22;35045;51.194;7.268;2023-03-14T07:20:08;9.20;99.90
49218;DHT22;35045;51.194;7.268;2023-03-14T07:22:35;9.20;99.90
49218;DHT22;35045;51.194;7.268;2023-03-14T07:25:01;9.20;99.90
49218;DHT22;35045;51.194;7.268;2023-03-14T07:27:27;9.20;99.90
49218;DHT22;35045;51.194;7.268;2023-03-14T07:29:53;9.30;99.90
49218;DHT22;35045;51.194;7.268;2023-03-14T07:32:19;9.20;99.90
49218;DHT22;35045;51.194;7.268;2023-03-14T07:34:45;9.30;99.90
49218;DHT22;35045;51.194;7.268;2023-03-14T07:37:11;9.30;99.90
49218;DHT22;35045;51.194;7.268;2023-03-14T07:39:38;9.20;99.90
49218;DHT22;35045;51.194;7.268;2023-03-14T07:42:04;9.20;99.90
49218;DHT22;35045;51.194;7.268;2023-03-14T07:44:30;9.20;99.90
49218;DHT22;35045;51.194;7.268;2023-03-14T07:46:56;9.20;99.90
49218;DHT22;35045;51.194;7.268;2023-03-14T07:49:23;9.20;99.90
49218;DHT22;35045;51.194;7.268;2023-03-14T07:51:49;9.20;99.90
49218;DHT22;35045;51.194;7.268;2023-03-14T07:54:16;9.20;99.90
49218;DHT22;35045;51.194;7.268;2023-03-14T07:56:42;9.20;99.90
49218;DHT22;35045;51.194;7.268;2023-03-14T07:59:08;9.20;99.90
49218;DHT22;35045;51.194;7.268;2023-03-14T08:01:35;9.30;99.90
49218;DHT22;35045;51.194;7.268;2023-03-14T08:04:01;9.30;99.90
49218;DHT22;35045;51.194;7.268;2023-03-14T08:06:27;9.30;99.90
49218;DHT22;35045;51.194;7.268;2023-03-14T08:08:53;9.30;99.90
49218;DHT22;35045;51.194;7.268;2023-03-14T08:11:19;9.30;99.90
49218;DHT22;35045;51.194;7.268;2023-03-14T08:13:45;9.30;99.90
49218;DHT22;35045;51.194;7.268;2023-03-14T08:16:16;9.30;99.90
49218;DHT22;35045;51.194;7.268;2023-03-14T08:18:43;9.40;99.90
49218;DHT22;35045;51.194;7.268;2023-03-14T08:21:10;9.30;99.90
49218;DHT22;35045;51.194;7.268;2023-03-14T08:23:36;9.30;99.90
49218;DHT22;35045;51.194;7.268;2023-03-14T08:26:02;9.30;99.90
49218;DHT22;35045;51.194;7.268;2023-03-14T08:28:28;9.30;99.90
49218;DHT22;35045;51.194;7.268;2023-03-14T08:30:57;9.30;99.90
49218;DHT22;35045;51.194;7.268;2023-03-14T08:33:24;9.20;99.90
49218;DHT22;35045;51.194;7.268;2023-03-14T08:35:54;9.30;99.90
49218;DHT22;35045;51.194;7.268;2023-03-14T08:38:20;9.20;99.90
49218;DHT22;35045;51.194;7.268;2023-03-14T08:40:47;9.30;99.90
49218;DHT22;35045;51.194;7.268;2023-03-14T08:43:13;9.20;99.90
49218;DHT22;35045;51.194;7.268;2023-03-14T08:45:39;9.30;99.90
49218;DHT22;35045;51.194;7.268;2023-03-14T08:48:05;9.30;99.90
49218;DHT22;35045;51.194;7.268;2023-03-14T08:50:31;9.30;99.90
49218;DHT22;35045;51.194;7.268;2023-03-14T08:52:58;9.40;99.90
49218;DHT22;35045;51.194;7.268;2023-03-14T08:55:26;9.30;99.90
49218;DHT22;35045;51.194;7.268;2023-03-14T08:57:55;9.40;99.90
49218;DHT22;35045;51.194;7.268;2023-03-14T09:00:22;9.40;99.90
49218;DHT22;35045;51.194;7.268;2023-03-14T09:02:48;9.40;99.90
49218;DHT22;35045;51.194;7.268;2023-03-14T09:05:14;9.50;99.90
49218;DHT22;35045;51.194;7.268;2023-03-14T09:07:40;9.50;99.90
49218;DHT22;35045;51.194;7.268;2023-03-14T09:10:08;9.50;99.90
49218;DHT22;35045;51.194;7.268;2023-03-14T09:12:34;9.50;99.90
49218;DHT22;35045;51.194;7.268;2023-03-14T09:15:00;9.40;99.90
49218;DHT22;35045;51.194;7.268;2023-03-14T09:17:26;9.50;99.90
49218;DHT22;35045;51.194;7.268;2023-03-14T09:19:53;9.50;99.90
49218;DHT22;35045;51.194;7.268;2023-03-14T09:22:19;9.50;99.90
49218;DHT22;35045;51.194;7.268;2023-03-14T09:24:46;9.50;99.90
49218;DHT22;35045;51.194;7.268;2023-03-14T09:27:13;9.60;99.90
49218;DHT22;35045;51.194;7.268;2023-03-14T09:29:39;9.50;99.90
49218;DHT22;35045;51.194;7.268;2023-03-14T09:32:05;9.50;99.90
49218;DHT22;35045;51.194;7.268;2023-03-14T09:34:31;9.50;99.90
49218;DHT22;35045;51.194;7.268;2023-03-14T09:36:57;9.50;99.90
49218;DHT22;35045;51.194;7.268;2023-03-14T09:39:24;9.50;99.90
49218;DHT22;35045;51.194;7.268;2023-03-14T09:41:52;9.50;99.90
49218;DHT22;35045;51.194;7.268;2023-03-14T09:44:25;9.50;99.90
49218;DHT22;35045;51.194;7.268;2023-03-14T09:46:54;9.40;99.90
49218;DHT22;35045;51.194;7.268;2023-03-14T09:49:35;9.40;99.90
49218;DHT22;35045;51.194;7.268;2023-03-14T09:52:47;9.30;99.90
49218;DHT22;35045;51.194;7.268;2023-03-14T09:57:57;9.20;99.90
49218;DHT22;35045;51.194;7.268;2023-03-14T10:00:29;9.00;99.90
49218;DHT22;35045;51.194;7.268;2023-03-14T10:03:00;8.70;99.90
49218;DHT22;35045;51.194;7.268;2023-03-14T10:05:33;8.30;99.90
49218;DHT22;35045;51.194;7.268;2023-03-14T10:07:59;8.20;99.90
49218;DHT22;35045;51.194;7.268;2023-03-14T10:10:26;8.10;99.90
49218;DHT22;35045;51.194;7.268;2023-03-14T10:13:12;7.90;99.90
49218;DHT22;35045;51.194;7.268;2023-03-14T10:15:39;7.70;99.90
49218;DHT22;35045;51.194;7.268;2023-03-14T10:18:11;7.60;99.90
49218;DHT22;35045;51.194;7.268;2023-03-14T10:20:44;7.60;99.90
49218;DHT22;35045;51.194;7.268;2023-03-14T10:25:45;7.40;99.90
49218;DHT22;35045;51.194;7.268;2023-03-14T10:30:50;7.40;99.90
49218;DHT22;35045;51.194;7.268;2023-03-14T10:33:23;7.50;99.90
49218;DHT22;35045;51.194;7.268;2023-03-14T10:36:03;7.40;99.90
49218;DHT22;35045;51.194;7.268;2023-03-14T10:38:33;7.40;99.90
49218;DHT22;35045;51.194;7.268;2023-03-14T10:41:00;7.30;99.90
49218;DHT22;35045;51.194;7.268;2023-03-14T10:43:32;7.30;99.90
49218;DHT22;35045;51.194;7.268;2023-03-14T10:46:01;7.30;99.90
49218;DHT22;35045;51.194;7.268;2023-03-14T10:48:36;7.30;99.90
49218;DHT22;35045;51.194;7.268;2023-03-14T10:51:12;7.20;99.90
49218;DHT22;35045;51.194;7.268;2023-03-14T10:53:48;7.20;99.90
49218;DHT22;35045;51.194;7.268;2023-03-14T10:56:20;7.20;99.90
49218;DHT22;35045;51.194;7.268;2023-03-14T10:58:49;7.20;99.90
49218;DHT22;35045;51.194;7.268;2023-03-14T11:01:39;7.20;99.90
49218;DHT22;35045;51.194;7.268;2023-03-14T11:04:46;7.10;99.90
49218;DHT22;35045;51.194;7.268;2023-03-14T11:07:29;7.10;99.90
49218;DHT22;35045;51.194;7.268;2023-03-14T11:10:15;7.10;99.90
49218;DHT22;35045;51.194;7.268;2023-03-14T11:16:06;7.00;99.90
49218;DHT22;35045;51.194;7.268;2023-03-14T11:19:00;7.00;99.90
49218;DHT22;35045;51.194;7.268;2023-03-14T11:21:50;6.80;99.90
49218;DHT22;35045;51.194;7.268;2023-03-14T11:33:27;6.70;99.90
49218;DHT22;35045;51.194;7.268;2023-03-14T11:36:07;6.80;99.90
49218;DHT22;35045;51.194;7.268;2023-03-14T11:38:38;6.60;99.90
49218;DHT22;35045;51.194;7.268;2023-03-14T11:41:20;6.40;99.90
49218;DHT22;35045;51.194;7.268;2023-03-14T11:43:53;6.30;99.90
49218;DHT22;35045;51.194;7.268;2023-03-14T11:46:29;6.30;99.90
49218;DHT22;35045;51.194;7.268;2023-03-14T11:49:03;6.30;99.90
49218;DHT22;35045;51.194;7.268;2023-03-14T11:51:36;6.40;99.90
49218;DHT22;35045;51.194;7.268;2023-03-14T11:54:43;6.50;99.90
49218;DHT22;35045;51.194;7.268;2023-03-14T11:57:15;6.50;99.90
49218;DHT22;35045;51.194;7.268;2023-03-14T12:00:18;6.40;99.90
49218;DHT22;35045;51.194;7.268;2023-03-14T12:03:19;6.20;99.90
49218;DHT22;35045;51.194;7.268;2023-03-14T12:09:00;6.20;99.90
49218;DHT22;35045;51.194;7.268;2023-03-14T12:13:55;5.90;99.90
49218;DHT22;35045;51.194;7.268;2023-03-14T12:16:30;5.80;99.90
49218;DHT22;35045;51.194;7.268;2023-03-14T12:19:14;5.80;99.90
49218;DHT22;35045;51.194;7.268;2023-03-14T12:21:53;5.90;99.90
49218;DHT22;35045;51.194;7.268;2023-03-14T12:24:26;5.80;99.90
49218;DHT22;35045;51.194;7.268;2023-03-14T12:26:58;5.90;99.90
49218;DHT22;35045;51.194;7.268;2023-03-14T12:29:25;6.00;99.90
49218;DHT22;35045;51.194;7.268;2023-03-14T12:34:28;5.80;99.90
49218;DHT22;35045;51.194;7.268;2023-03-14T12:37:23;5.60;99.90
49218;DHT22;35045;51.194;7.268;2023-03-14T12:40:21;5.60;99.90
49218;DHT22;35045;51.194;7.268;2023-03-14T12:43:03;5.80;99.90
49218;DHT22;35045;51.194;7.268;2023-03-14T12:45:31;5.80;99.90
49218;DHT22;35045;51.194;7.268;2023-03-14T12:50:42;6.00;99.90
49218;DHT22;35045;51.194;7.268;2023-03-14T13:04:44;6.50;99.90
49218;DHT22;35045;51.194;7.268;2023-03-14T13:07:35;6.60;99.90
49218;DHT22;35045;51.194;7.268;2023-03-14T13:15:35;7.30;99.90
49218;DHT22;35045;51.194;7.268;2023-03-14T13:18:18;7.20;99.90
49218;DHT22;35045;51.194;7.268;2023-03-14T13:23:34;6.90;99.90
49218;DHT22;35045;51.194;7.268;2023-03-14T13:26:01;6.70;99.90
49218;DHT22;35045;51.194;7.268;2023-03-14T13:28:29;6.70;99.90
49218;DHT22;35045;51.194;7.268;2023-03-14T13:31:02;6.50;99.90
49218;DHT22;35045;51.194;7.268;2023-03-14T13:33:29;6.30;99.90
49218;DHT22;35045;51.194;7.268;2023-03-14T13:35:56;6.30;99.90
49218;DHT22;35045;51.194;7.268;2023-03-14T13:38:24;6.30;99.90
49218;DHT22;35045;51.194;7.268;2023-03-14T13:40:53;6.10;99.90
49218;DHT22;35045;51.194;7.268;2023-03-14T13:46:13;5.60;99.90
49218;DHT22;35045;51.194;7.268;2023-03-14T13:48:45;5.60;99.90
49218;DHT22;35045;51.194;7.268;2023-03-14T13:51:13;5.50;99.90
49218;DHT22;35045;51.194;7.268;2023-03-14T13:56:13;5.80;99.90
49218;DHT22;35045;51.194;7.268;2023-03-14T13:58:40;5.80;99.90
49218;DHT22;35045;51.194;7.268;2023-03-14T14:01:24;5.90;99.90
49218;DHT22;35045;51.194;7.268;2023-03-14T14:03:53;5.80;99.90
49218;DHT22;35045;51.194;7.268;2023-03-14T14:08:54;5.70;99.90
49218;DHT22;35045;51.194;7.268;2023-03-14T14:11:46;5.20;99.90
49218;DHT22;35045;51.194;7.268;2023-03-14T14:14:35;5.10;99.90
49218;DHT22;35045;51.194;7.268;2023-03-14T14:17:05;5.30;99.90
49218;DHT22;35045;51.194;7.268;2023-03-14T14:19:34;5.40;99.90
49218;DHT22;35045;51.194;7.268;2023-03-14T14:22:02;5.60;99.90
49218;DHT22;35045;51.194;7.268;2023-03-14T14:24:31;5.90;99.90
49218;DHT22;35045;51.194;7.268;2023-03-14T14:27:08;6.20;99.90
49218;DHT22;35045;51.194;7.268;2023-03-14T14:29:35;6.90;99.90
49218;DHT22;35045;51.194;7.268;2023-03-14T14:37:24;8.80;99.90
49218;DHT22;35045;51.194;7.268;2023-03-14T14:39:55;8.80;99.90
49218;DHT22;35045;51.194;7.268;2023-03-14T14:42:26;8.80;99.90
49218;DHT22;35045;51.194;7.268;2023-03-14T14:44:53;8.60;99.90
49218;DHT22;35045;51.194;7.268;2023-03-14T14:47:22;8.70;99.90
49218;DHT22;35045;51.194;7.268;2023-03-14T14:49:50;8.50;99.90
49218;DHT22;35045;51.194;7.268;2023-03-14T14:52:30;8.50;99.90
49218;DHT22;35045;51.194;7.268;2023-03-14T14:55:00;8.40;99.90
49218;DHT22;35045;51.194;7.268;2023-03-14T14:57:32;8.10;99.90
49218;DHT22;35045;51.194;7.268;2023-03-14T15:00:06;7.70;99.90
49218;DHT22;35045;51.194;7.268;2023-03-14T15:02:39;7.60;99.90
49218;DHT22;35045;51.194;7.268;2023-03-14T15:07:40;7.70;99.90
49218;DHT22;35045;51.194;7.268;2023-03-14T15:10:09;7.70;99.90
49218;DHT22;35045;51.194;7.268;2023-03-14T15:12:36;7.40;99.90
49218;DHT22;35045;51.194;7.268;2023-03-14T15:15:02;7.30;99.90
49218;DHT22;35045;51.194;7.268;2023-03-14T15:17:28;7.30;99.90
49218;DHT22;35045;51.194;7.268;2023-03-14T15:19:54;7.40;99.90
49218;DHT22;35045;51.194;7.268;2023-03-14T15:22:23;7.50;99.90
49218;DHT22;35045;51.194;7.268;2023-03-14T15:24:50;7.30;99.90
49218;DHT22;35045;51.194;7.268;2023-03-14T15:27:17;7.00;99.90
49218;DHT22;35045;51.194;7.268;2023-03-14T15:29:44;6.90;99.90
49218;DHT22;35045;51.194;7.268;2023-03-14T15:32:15;6.80;99.90
49218;DHT22;35045;51.194;7.268;2023-03-14T15:34:42;6.80;99.90
49218;DHT22;35045;51.194;7.268;2023-03-14T15:37:11;6.90;99.90
49218;DHT22;35045;51.194;7.268;2023-03-14T15:39:39;7.00;99.90
49218;DHT22;35045;51.194;7.268;2023-03-14T15:42:05;6.90;99.90
49218;DHT22;35045;51.194;7.268;2023-03-14T15:44:32;7.10;99.90
49218;DHT22;35045;51.194;7.268;2023-03-14T15:46:58;7.30;99.90
49218;DHT22;35045;51.194;7.268;2023-03-14T15:49:24;7.30;98.30
49218;DHT22;35045;51.194;7.268;2023-03-14T15:51:50;7.10;98.80
49218;DHT22;35045;51.194;7.268;2023-03-14T15:54:16;7.00;99.60
49218;DHT22;35045;51.194;7.268;2023-03-14T15:56:43;7.10;99.90
49218;DHT22;35045;51.194;7.268;2023-03-14T15:59:10;7.10;99.70
49218;DHT22;35045;51.194;7.268;2023-03-14T16:01:36;6.80;99.10
49218;DHT22;35045;51.194;7.268;2023-03-14T16:04:02;6.70;99.90
49218;DHT22;35045;51.194;7.268;2023-03-14T16:06:29;6.60;99.90
49218;DHT22;35045;51.194;7.268;2023-03-14T16:08:56;6.50;99.50
49218;DHT22;35045;51.194;7.268;2023-03-14T16:11:22;6.50;99.90
49218;DHT22;35045;51.194;7.268;2023-03-14T16:13:49;6.40;99.90
49218;DHT22;35045;51.194;7.268;2023-03-14T16:16:16;6.40;99.90
49218;DHT22;35045;51.194;7.268;2023-03-14T16:18:42;6.40;99.90
49218;DHT22;35045;51.194;7.268;2023-03-14T16:21:12;6.30;99.70
49218;DHT22;35045;51.194;7.268;2023-03-14T16:23:39;6.20;99.90
49218;DHT22;35045;51.194;7.268;2023-03-14T16:26:08;6.20;99.90
49218;DHT22;35045;51.194;7.268;2023-03-14T16:28:35;6.20;99.90
49218;DHT22;35045;51.194;7.268;2023-03-14T16:31:04;6.20;99.80
49218;DHT22;35045;51.194;7.268;2023-03-14T16:33:31;6.10;99.90
49218;DHT22;35045;51.194;7.268;2023-03-14T16:35:59;6.10;99.40
49218;DHT22;35045;51.194;7.268;2023-03-14T16:38:31;5.90;99.90
49218;DHT22;35045;51.194;7.268;2023-03-14T16:41:04;5.80;99.90
49218;DHT22;35045;51.194;7.268;2023-03-14T16:43:31;5.80;99.90
49218;DHT22;35045;51.194;7.268;2023-03-14T16:45:59;5.70;99.60
49218;DHT22;35045;51.194;7.268;2023-03-14T16:48:26;5.80;99.90
49218;DHT22;35045;51.194;7.268;2023-03-14T16:50:53;5.70;99.90
49218;DHT22;35045;51.194;7.268;2023-03-14T16:53:19;5.80;99.90
49218;DHT22;35045;51.194;7.268;2023-03-14T16:55:46;5.80;99.90
49218;DHT22;35045;51.194;7.268;2023-03-14T16:58:12;5.90;99.90
49218;DHT22;35045;51.194;7.268;2023-03-14T17:00:39;5.90;99.90
49218;DHT22;35045;51.194;7.268;2023-03-14T17:03:05;5.90;99.90
49218;DHT22;35045;51.194;7.268;2023-03-14T17:05:32;5.90;99.90
49218;DHT22;35045;51.194;7.268;2023-03-14T17:07:58;6.00;99.90
49218;DHT22;35045;51.194;7.268;2023-03-14T17:10:24;6.00;99.90
49218;DHT22;35045;51.194;7.268;2023-03-14T17:12:50;6.00;99.90